sensor_id;sensor_type;location;lat;lon;timestamp;temperature;humidity
35395;DHT22;21500;45.308;9.488;2023-05-27T00:00:30;21.10;99.90
35395;DHT22;21500;45.308;9.488;2023-05-27T00:02:58;21.10;99.90
35395;DHT22;21500;45.308;9.488;2023-05-27T00:05:26;21.10;99.90
35395;DHT22;21500;45.308;9.488;2023-05-27T00:07:51;21.20;99.90
35395;DHT22;21500;45.308;9.488;2023-05-27T00:10:17;21.30;99.90
35395;DHT22;21500;45.308;9.488;2023-05-27T00:12:43;21.40;99.90
35395;DHT22;21500;45.308;9.488;2023-05-27T00:15:08;21.40;99.90
35395;DHT22;21500;45.308;9.488;2023-05-27T00:17:34;21.40;99.90
35395;DHT22;21500;45.308;9.488;2023-05-27T00:20:00;21.40;99.90
35395;DHT22;21500;45.308;9.488;2023-05-27T00:22:33;21.40;99.90
35395;DHT22;21500;45.308;9.488;2023-05-27T00:25:00;21.50;99.90
35395;DHT22;21500;45.308;9.488;2023-05-27T00:27:26;21.50;99.90
35395;DHT22;21500;45.308;9.488;2023-05-27T00:29:51;21.50;99.90
35395;DHT22;21500;45.308;9.488;2023-05-27T00:32:17;21.40;99.90
35395;DHT22;21500;45.308;9.488;2023-05-27T00:34:44;21.50;99.90
35395;DHT22;21500;45.308;9.488;2023-05-27T00:37:10;21.40;99.90
35395;DHT22;21500;45.308;9.488;2023-05-27T00:39:46;21.50;99.90
35395;DHT22;21500;45.308;9.488;2023-05-27T00:42:11;21.50;99.90
35395;DHT22;21500;45.308;9.488;2023-05-27T00:44:38;21.50;99.90
35395;DHT22;21500;45.308;9.488;2023-05-27T00:47:04;21.50;99.90
35395;DHT22;21500;45.308;9.488;2023-05-27T00:49:29;21.50;99.90
35395;DHT22;21500;45.308;9.488;2023-05-27T00:51:55;21.50;99.90
35395;DHT22;21500;45.308;9.488;2023-05-27T00:54:21;21.50;99.90
35395;DHT22;21500;45.308;9.488;2023-05-27T00:56:47;21.40;99.90
35395;DHT22;21500;45.308;9.488;2023-05-27T00:59:14;21.40;99.90
35395;DHT22;21500;45.308;9.488;2023-05-27T01:01:41;21.40;99.90
35395;DHT22;21500;45.308;9.488;2023-05-27T01:04:09;21.40;99.90
35395;DHT22;21500;45.308;9.488;2023-05-27T01:06:44;21.40;99.90
35395;DHT22;21500;45.308;9.488;2023-05-27T01:11:59;21.40;99.90
35395;DHT22;21500;45.308;9.488;2023-05-27T01:14:28;21.40;99.90
35395;DHT22;21500;45.308;9.488;2023-05-27T01:16:56;21.40;99.90
35395;DHT22;21500;45.308;9.488;2023-05-27T01:19:35;21.40;99.90
35395;DHT22;21500;45.308;9.488;2023-05-27T01:22:01;21.40;99.90
35395;DHT22;21500;45.308;9.488;2023-05-27T01:24:27;21.30;99.90
35395;DHT22;21500;45.308;9.488;2023-05-27T01:26:53;21.40;99.90
35395;DHT22;21500;45.308;9.488;2023-05-27T01:29:21;21.30;99.90
35395;DHT22;21500;45.308;9.488;2023-05-27T01:31:49;21.30;99.90
35395;DHT22;21500;45.308;9.488;2023-05-27T01:34:18;21.30;99.90
35395;DHT22;21500;45.308;9.488;2023-05-27T01:36:51;21.30;99.90
35395;DHT22;21500;45.308;9.488;2023-05-27T01:39:21;21.20;99.90
35395;DHT22;21500;45.308;9.488;2023-05-27T01:41:49;21.20;99.90
35395;DHT22;21500;45.308;9.488;2023-05-27T01:44:15;21.30;99.90
35395;DHT22;21500;45.308;9.488;2023-05-27T01:46:42;21.20;99.90
35395;DHT22;21500;45.308;9.488;2023-05-27T01:49:09;21.30;99.90
35395;DHT22;21500;45.308;9.488;2023-05-27T01:51:35;21.20;99.90
35395;DHT22;21500;45.308;9.488;2023-05-27T01:54:02;21.20;99.90
35395;DHT22;21500;45.308;9.488;2023-05-27T01:56:28;21.20;99.90
35395;DHT22;21500;45.308;9.488;2023-05-27T01:58:55;21.20;99.90
35395;DHT22;21500;45.308;9.488;2023-05-27T02:01:20;21.20;99.90
35395;DHT22;21500;45.308;9.488;2023-05-27T02:03:48;21.20;99.90
35395;DHT22;21500;45.308;9.488;2023-05-27T02:06:13;21.20;99.90
35395;DHT22;21500;45.308;9.488;2023-05-27T02:08:39;21.20;99.90
35395;DHT22;21500;45.308;9.488;2023-05-27T02:11:06;21.20;99.90
35395;DHT22;21500;45.308;9.488;2023-05-27T02:13:31;21.20;99.90
35395;DHT22;21500;45.308;9.488;2023-05-27T02:15:58;21.30;99.90
35395;DHT22;21500;45.308;9.488;2023-05-27T02:18:24;21.30;99.90
35395;DHT22;21500;45.308;9.488;2023-05-27T02:20:50;21.20;99.90
35395;DHT22;21500;45.308;9.488;2023-05-27T02:23:18;21.20;99.90
35395;DHT22;21500;45.308;9.488;2023-05-27T02:25:43;21.10;99.90
35395;DHT22;21500;45.308;9.488;2023-05-27T02:28:09;21.20;99.90
35395;DHT22;21500;45.308;9.488;2023-05-27T02:30:35;21.10;99.90
35395;DHT22;21500;45.308;9.488;2023-05-27T02:33:01;21.10;99.90
35395;DHT22;21500;45.308;9.488;2023-05-27T02:35:27;21.10;99.90
35395;DHT22;21500;45.308;9.488;2023-05-27T02:37:53;21.00;99.90
35395;DHT22;21500;45.308;9.488;2023-05-27T02:40:26;21.00;99.90
35395;DHT22;21500;45.308;9.488;2023-05-27T02:42:55;21.00;99.90
35395;DHT22;21500;45.308;9.488;2023-05-27T02:45:21;21.00;99.90
35395;DHT22;21500;45.308;9.488;2023-05-27T02:47:47;21.00;99.90
35395;DHT22;21500;45.308;9.488;2023-05-27T02:50:12;21.00;99.90
35395;DHT22;21500;45.308;9.488;2023-05-27T02:52:38;21.00;99.90
35395;DHT22;21500;45.308;9.488;2023-05-27T02:55:11;20.80;99.90
35395;DHT22;21500;45.308;9.488;2023-05-27T02:57:37;20.90;99.90
35395;DHT22;21500;45.308;9.488;2023-05-27T03:00:03;20.80;99.90
35395;DHT22;21500;45.308;9.488;2023-05-27T03:02:29;20.80;99.90
35395;DHT22;21500;45.308;9.488;2023-05-27T03:04:54;20.80;99.90
35395;DHT22;21500;45.308;9.488;2023-05-27T03:07:21;20.70;99.90
35395;DHT22;21500;45.308;9.488;2023-05-27T03:09:46;20.70;99.90
35395;DHT22;21500;45.308;9.488;2023-05-27T03:12:12;20.70;99.90
35395;DHT22;21500;45.308;9.488;2023-05-27T03:14:37;20.60;99.90
35395;DHT22;21500;45.308;9.488;2023-05-27T03:17:03;20.60;99.90
35395;DHT22;21500;45.308;9.488;2023-05-27T03:19:30;20.50;99.90
35395;DHT22;21500;45.308;9.488;2023-05-27T03:21:56;20.50;99.90
35395;DHT22;21500;45.308;9.488;2023-05-27T03:24:24;20.50;99.90
35395;DHT22;21500;45.308;9.488;2023-05-27T03:26:51;20.50;99.90
35395;DHT22;21500;45.308;9.488;2023-05-27T03:29:18;20.40;99.90
35395;DHT22;21500;45.308;9.488;2023-05-27T03:31:43;20.40;99.90
35395;DHT22;21500;45.308;9.488;2023-05-27T03:34:13;20.40;99.90
35395;DHT22;21500;45.308;9.488;2023-05-27T03:36:40;20.40;99.90
35395;DHT22;21500;45.308;9.488;2023-05-27T03:39:08;20.40;99.90
35395;DHT22;21500;45.308;9.488;2023-05-27T03:41:41;20.30;99.90
35395;DHT22;21500;45.308;9.488;2023-05-27T03:44:09;20.30;99.90
35395;DHT22;21500;45.308;9.488;2023-05-27T03:46:35;20.20;99.90
35395;DHT22;21500;45.308;9.488;2023-05-27T03:49:01;20.10;99.90
35395;DHT22;21500;45.308;9.488;2023-05-27T03:51:29;20.10;99.90
35395;DHT22;21500;45.308;9.488;2023-05-27T03:53:55;20.00;99.90
35395;DHT22;21500;45.308;9.488;2023-05-27T03:56:20;20.00;99.90
35395;DHT22;21500;45.308;9.488;2023-05-27T03:58:46;20.00;99.90
35395;DHT22;21500;45.308;9.488;2023-05-27T04:01:11;19.90;99.90
35395;DHT22;21500;45.308;9.488;2023-05-27T04:03:37;19.90;99.90
35395;DHT22;21500;45.308;9.488;2023-05-27T04:06:05;19.90;99.90
35395;DHT22;21500;45.308;9.488;2023-05-27T04:08:31;19.90;99.90
35395;DHT22;21500;45.308;9.488;2023-05-27T04:10:57;19.90;99.90
35395;DHT22;21500;45.308;9.488;2023-05-27T04:13:24;19.90;99.90
35395;DHT22;21500;45.308;9.488;2023-05-27T04:15:50;19.90;99.90
35395;DHT22;21500;45.308;9.488;2023-05-27T04:18:15;19.80;99.90
35395;DHT22;21500;45.308;9.488;2023-05-27T04:20:42;19.80;99.90
35395;DHT22;21500;45.308;9.488;2023-05-27T04:23:10;19.70;99.90
35395;DHT22;21500;45.308;9.488;2023-05-27T04:25:36;19.70;99.90
35395;DHT22;21500;45.308;9.488;2023-05-27T04:28:07;19.70;99.90
35395;DHT22;21500;45.308;9.488;2023-05-27T04:30:38;19.60;99.90
35395;DHT22;21500;45.308;9.488;2023-05-27T04:33:12;19.60;99.90
35395;DHT22;21500;45.308;9.488;2023-05-27T04:35:39;19.60;99.90
35395;DHT22;21500;45.308;9.488;2023-05-27T04:38:06;19.60;99.90
35395;DHT22;21500;45.308;9.488;2023-05-27T04:40:44;19.60;99.90
35395;DHT22;21500;45.308;9.488;2023-05-27T04:43:38;19.50;99.90
35395;DHT22;21500;45.308;9.488;2023-05-27T04:46:04;19.50;99.90
35395;DHT22;21500;45.308;9.488;2023-05-27T04:48:30;19.50;99.90
35395;DHT22;21500;45.308;9.488;2023-05-27T04:50:56;19.40;99.90
35395;DHT22;21500;45.308;9.488;2023-05-27T04:53:23;19.40;99.90
35395;DHT22;21500;45.308;9.488;2023-05-27T04:55:50;19.40;99.90
35395;DHT22;21500;45.308;9.488;2023-05-27T04:58:16;19.40;99.90
35395;DHT22;21500;45.308;9.488;2023-05-27T05:00:42;19.40;99.90
35395;DHT22;21500;45.308;9.488;2023-05-27T05:03:22;19.40;99.90
35395;DHT22;21500;45.308;9.488;2023-05-27T05:05:51;19.40;99.90
35395;DHT22;21500;45.308;9.488;2023-05-27T05:08:17;19.40;99.90
35395;DHT22;21500;45.308;9.488;2023-05-27T05:10:45;19.40;99.90
35395;DHT22;21500;45.308;9.488;2023-05-27T05:13:11;19.30;99.90
35395;DHT22;21500;45.308;9.488;2023-05-27T05:15:37;19.40;99.90
35395;DHT22;21500;45.308;9.488;2023-05-27T05:18:03;19.30;99.90
35395;DHT22;21500;45.308;9.488;2023-05-27T05:20:29;19.20;99.90
35395;DHT22;21500;45.308;9.488;2023-05-27T05:22:56;19.30;99.90
35395;DHT22;21500;45.308;9.488;2023-05-27T05:25:24;19.30;99.90
35395;DHT22;21500;45.308;9.488;2023-05-27T05:27:52;19.30;99.90
35395;DHT22;21500;45.308;9.488;2023-05-27T05:30:19;19.30;99.90
35395;DHT22;21500;45.308;9.488;2023-05-27T05:32:45;19.30;99.90
35395;DHT22;21500;45.308;9.488;2023-05-27T05:35:14;19.40;99.90
35395;DHT22;21500;45.308;9.488;2023-05-27T05:37:45;19.50;99.90
35395;DHT22;21500;45.308;9.488;2023-05-27T05:40:11;19.60;99.90
35395;DHT22;21500;45.308;9.488;2023-05-27T05:42:43;19.70;99.90
35395;DHT22;21500;45.308;9.488;2023-05-27T05:45:09;19.80;99.90
35395;DHT22;21500;45.308;9.488;2023-05-27T05:47:36;19.80;99.90
35395;DHT22;21500;45.308;9.488;2023-05-27T05:50:08;19.80;99.90
35395;DHT22;21500;45.308;9.488;2023-05-27T05:52:36;19.90;99.90
35395;DHT22;21500;45.308;9.488;2023-05-27T05:55:01;19.90;99.90
35395;DHT22;21500;45.308;9.488;2023-05-27T05:57:27;19.90;99.90
35395;DHT22;21500;45.308;9.488;2023-05-27T05:59:57;20.00;99.90
35395;DHT22;21500;45.308;9.488;2023-05-27T06:02:23;20.00;99.90
35395;DHT22;21500;45.308;9.488;2023-05-27T06:04:48;20.00;99.90
35395;DHT22;21500;45.308;9.488;2023-05-27T06:07:15;20.00;99.90
35395;DHT22;21500;45.308;9.488;2023-05-27T06:09:49;20.00;99.90
35395;DHT22;21500;45.308;9.488;2023-05-27T06:12:20;20.10;99.90
35395;DHT22;21500;45.308;9.488;2023-05-27T06:14:47;20.20;99.90
35395;DHT22;21500;45.308;9.488;2023-05-27T06:17:21;20.30;99.90
35395;DHT22;21500;45.308;9.488;2023-05-27T06:19:47;20.20;99.90
35395;DHT22;21500;45.308;9.488;2023-05-27T06:22:13;20.20;99.90
35395;DHT22;21500;45.308;9.488;2023-05-27T06:24:40;20.30;99.90
35395;DHT22;21500;45.308;9.488;2023-05-27T06:27:21;20.20;99.90
35395;DHT22;21500;45.308;9.488;2023-05-27T06:29:46;20.20;99.90
35395;DHT22;21500;45.308;9.488;2023-05-27T06:32:17;20.30;99.90
35395;DHT22;21500;45.308;9.488;2023-05-27T06:34:42;20.20;99.90
35395;DHT22;21500;45.308;9.488;2023-05-27T06:37:08;20.30;99.90
35395;DHT22;21500;45.308;9.488;2023-05-27T06:39:34;20.30;99.90
35395;DHT22;21500;45.308;9.488;2023-05-27T06:42:00;20.30;99.90
35395;DHT22;21500;45.308;9.488;2023-05-27T06:44:42;20.20;99.90
35395;DHT22;21500;45.308;9.488;2023-05-27T06:47:14;20.10;99.90
35395;DHT22;21500;45.308;9.488;2023-05-27T06:49:41;20.10;99.90
35395;DHT22;21500;45.308;9.488;2023-05-27T06:52:07;20.20;99.90
35395;DHT22;21500;45.308;9.488;2023-05-27T06:54:47;20.20;99.90
35395;DHT22;21500;45.308;9.488;2023-05-27T06:57:31;20.40;99.90
35395;DHT22;21500;45.308;9.488;2023-05-27T07:00:05;20.50;99.90
35395;DHT22;21500;45.308;9.488;2023-05-27T07:02:40;20.70;99.90
35395;DHT22;21500;45.308;9.488;2023-05-27T07:05:05;21.00;99.90
35395;DHT22;21500;45.308;9.488;2023-05-27T07:07:31;21.00;99.90
35395;DHT22;21500;45.308;9.488;2023-05-27T07:09:57;21.20;99.90
35395;DHT22;21500;45.308;9.488;2023-05-27T07:12:23;21.30;99.90
35395;DHT22;21500;45.308;9.488;2023-05-27T07:14:51;21.30;99.90
35395;DHT22;21500;45.308;9.488;2023-05-27T07:17:18;21.50;99.90
35395;DHT22;21500;45.308;9.488;2023-05-27T07:19:44;21.70;99.90
35395;DHT22;21500;45.308;9.488;2023-05-27T07:22:15;22.00;99.90
35395;DHT22;21500;45.308;9.488;2023-05-27T07:24:40;22.10;99.90
35395;DHT22;21500;45.308;9.488;2023-05-27T07:27:07;22.20;99.90
35395;DHT22;21500;45.308;9.488;2023-05-27T07:29:34;22.10;99.90
35395;DHT22;21500;45.308;9.488;2023-05-27T07:32:11;21.90;99.90
35395;DHT22;21500;45.308;9.488;2023-05-27T07:34:38;22.10;99.90
35395;DHT22;21500;45.308;9.488;2023-05-27T07:37:04;22.30;99.90
35395;DHT22;21500;45.308;9.488;2023-05-27T07:39:29;22.50;99.90
35395;DHT22;21500;45.308;9.488;2023-05-27T07:41:55;22.60;99.90
35395;DHT22;21500;45.308;9.488;2023-05-27T07:44:22;22.80;99.90
35395;DHT22;21500;45.308;9.488;2023-05-27T07:46:48;22.80;99.90
35395;DHT22;21500;45.308;9.488;2023-05-27T07:49:13;23.10;99.90
35395;DHT22;21500;45.308;9.488;2023-05-27T07:51:51;23.10;99.90
35395;DHT22;21500;45.308;9.488;2023-05-27T07:54:17;23.20;99.90
35395;DHT22;21500;45.308;9.488;2023-05-27T07:56:43;23.10;99.90
35395;DHT22;21500;45.308;9.488;2023-05-27T07:59:08;23.30;99.90
35395;DHT22;21500;45.308;9.488;2023-05-27T08:01:34;23.50;99.90
35395;DHT22;21500;45.308;9.488;2023-05-27T08:04:01;23.20;99.90
35395;DHT22;21500;45.308;9.488;2023-05-27T08:06:45;22.90;99.90
35395;DHT22;21500;45.308;9.488;2023-05-27T08:09:20;22.80;99.90
35395;DHT22;21500;45.308;9.488;2023-05-27T08:12:15;22.80;99.90
35395;DHT22;21500;45.308;9.488;2023-05-27T08:14:48;22.80;99.90
35395;DHT22;21500;45.308;9.488;2023-05-27T08:17:34;22.80;99.90
35395;DHT22;21500;45.308;9.488;2023-05-27T08:20:05;23.00;99.90
35395;DHT22;21500;45.308;9.488;2023-05-27T08:22:51;23.00;99.90
35395;DHT22;21500;45.308;9.488;2023-05-27T08:25:35;23.20;99.90
35395;DHT22;21500;45.308;9.488;2023-05-27T08:28:10;23.00;99.90
35395;DHT22;21500;45.308;9.488;2023-05-27T08:31:14;23.00;99.90
35395;DHT22;21500;45.308;9.488;2023-05-27T08:33:45;23.10;99.90
35395;DHT22;21500;45.308;9.488;2023-05-27T08:36:11;23.30;99.90
35395;DHT22;21500;45.308;9.488;2023-05-27T08:38:38;23.40;99.90
35395;DHT22;21500;45.308;9.488;2023-05-27T08:41:30;23.40;99.90
35395;DHT22;21500;45.308;9.488;2023-05-27T08:43:57;23.40;99.90
35395;DHT22;21500;45.308;9.488;2023-05-27T08:46:24;23.80;99.90
35395;DHT22;21500;45.308;9.488;2023-05-27T08:48:51;23.80;99.90
35395;DHT22;21500;45.308;9.488;2023-05-27T08:51:17;24.10;99.90
35395;DHT22;21500;45.308;9.488;2023-05-27T08:53:44;24.50;99.90
35395;DHT22;21500;45.308;9.488;2023-05-27T08:56:11;24.50;99.90
35395;DHT22;21500;45.308;9.488;2023-05-27T08:58:42;24.40;99.90
35395;DHT22;21500;45.308;9.488;2023-05-27T09:01:08;24.30;99.90
35395;DHT22;21500;45.308;9.488;2023-05-27T09:03:35;24.30;99.90
35395;DHT22;21500;45.308;9.488;2023-05-27T09:06:02;24.30;99.90
35395;DHT22;21500;45.308;9.488;2023-05-27T09:08:29;24.20;99.90
35395;DHT22;21500;45.308;9.488;2023-05-27T09:10:55;24.60;99.90
35395;DHT22;21500;45.308;9.488;2023-05-27T09:13:27;24.90;99.90
35395;DHT22;21500;45.308;9.488;2023-05-27T09:15:59;24.80;99.90
35395;DHT22;21500;45.308;9.488;2023-05-27T09:18:27;24.80;99.90
35395;DHT22;21500;45.308;9.488;2023-05-27T09:20:54;24.90;99.90
35395;DHT22;21500;45.308;9.488;2023-05-27T09:23:20;25.00;99.90
35395;DHT22;21500;45.308;9.488;2023-05-27T09:25:45;24.70;99.90
35395;DHT22;21500;45.308;9.488;2023-05-27T09:28:11;24.70;99.90
35395;DHT22;21500;45.308;9.488;2023-05-27T09:30:37;24.60;99.90
35395;DHT22;21500;45.308;9.488;2023-05-27T09:33:02;24.50;99.90
35395;DHT22;21500;45.308;9.488;2023-05-27T09:35:29;24.50;99.90
35395;DHT22;21500;45.308;9.488;2023-05-27T09:38:04;24.80;99.90
35395;DHT22;21500;45.308;9.488;2023-05-27T09:40:30;24.90;99.90
35395;DHT22;21500;45.308;9.488;2023-05-27T09:42:56;25.00;99.90
35395;DHT22;21500;45.308;9.488;2023-05-27T09:45:22;25.00;99.90
35395;DHT22;21500;45.308;9.488;2023-05-27T09:47:49;25.00;99.90
35395;DHT22;21500;45.308;9.488;2023-05-27T09:50:15;25.00;99.90
35395;DHT22;21500;45.308;9.488;2023-05-27T09:52:41;24.90;99.90
35395;DHT22;21500;45.308;9.488;2023-05-27T09:55:08;25.00;99.90
35395;DHT22;21500;45.308;9.488;2023-05-27T09:57:35;25.20;99.90
35395;DHT22;21500;45.308;9.488;2023-05-27T10:00:01;25.00;99.90
35395;DHT22;21500;45.308;9.488;2023-05-27T10:02:38;25.00;99.90
35395;DHT22;21500;45.308;9.488;2023-05-27T10:05:05;25.00;99.90
35395;DHT22;21500;45.308;9.488;2023-05-27T10:07:36;25.20;99.90
35395;DHT22;21500;45.308;9.488;2023-05-27T10:10:04;25.10;99.90
35395;DHT22;21500;45.308;9.488;2023-05-27T10:12:30;25.20;99.90
35395;DHT22;21500;45.308;9.488;2023-05-27T10:14:56;25.20;99.90
35395;DHT22;21500;45.308;9.488;2023-05-27T10:17:21;25.30;99.90
35395;DHT22;21500;45.308;9.488;2023-05-27T10:19:54;25.20;99.90
35395;DHT22;21500;45.308;9.488;2023-05-27T10:22:21;25.20;99.90
35395;DHT22;21500;45.308;9.488;2023-05-27T10:24:47;25.20;99.90
35395;DHT22;21500;45.308;9.488;2023-05-27T10:27:14;25.10;99.90
35395;DHT22;21500;45.308;9.488;2023-05-27T10:29:39;25.50;99.90
35395;DHT22;21500;45.308;9.488;2023-05-27T10:32:05;25.50;99.90
35395;DHT22;21500;45.308;9.488;2023-05-27T10:34:34;25.70;99.90
35395;DHT22;21500;45.308;9.488;2023-05-27T10:37:00;25.90;99.90
35395;DHT22;21500;45.308;9.488;2023-05-27T10:39:26;25.70;99.90
35395;DHT22;21500;45.308;9.488;2023-05-27T10:41:52;25.80;99.90
35395;DHT22;21500;45.308;9.488;2023-05-27T10:44:51;25.50;99.90
35395;DHT22;21500;45.308;9.488;2023-05-27T10:47:11;25.60;99.90
35395;DHT22;21500;45.308;9.488;2023-05-27T10:49:37;25.90;99.90
35395;DHT22;21500;45.308;9.488;2023-05-27T10:52:11;25.60;99.90
35395;DHT22;21500;45.308;9.488;2023-05-27T10:54:38;25.60;99.90
35395;DHT22;21500;45.308;9.488;2023-05-27T10:57:04;25.50;99.90
35395;DHT22;21500;45.308;9.488;2023-05-27T10:59:39;25.70;99.90
35395;DHT22;21500;45.308;9.488;2023-05-27T11:02:05;25.90;99.90
35395;DHT22;21500;45.308;9.488;2023-05-27T11:04:37;25.90;99.90
35395;DHT22;21500;45.308;9.488;2023-05-27T11:07:03;25.80;99.90
35395;DHT22;21500;45.308;9.488;2023-05-27T11:09:29;25.90;99.90
35395;DHT22;21500;45.308;9.488;2023-05-27T11:12:00;25.70;99.90
35395;DHT22;21500;45.308;9.488;2023-05-27T11:14:27;25.80;99.90
35395;DHT22;21500;45.308;9.488;2023-05-27T11:16:53;25.60;99.90
35395;DHT22;21500;45.308;9.488;2023-05-27T11:19:20;25.50;99.90
35395;DHT22;21500;45.308;9.488;2023-05-27T11:21:46;25.70;99.90
35395;DHT22;21500;45.308;9.488;2023-05-27T11:24:18;25.80;99.90
35395;DHT22;21500;45.308;9.488;2023-05-27T11:26:46;25.70;99.90
35395;DHT22;21500;45.308;9.488;2023-05-27T11:29:13;25.50;99.90
35395;DHT22;21500;45.308;9.488;2023-05-27T11:31:39;25.30;99.90
35395;DHT22;21500;45.308;9.488;2023-05-27T11:34:11;25.60;99.90
35395;DHT22;21500;45.308;9.488;2023-05-27T11:36:39;25.80;99.90
35395;DHT22;21500;45.308;9.488;2023-05-27T11:39:05;25.80;99.90
35395;DHT22;21500;45.308;9.488;2023-05-27T11:41:32;25.90;99.90
35395;DHT22;21500;45.308;9.488;2023-05-27T11:44:05;26.00;99.90
35395;DHT22;21500;45.308;9.488;2023-05-27T11:46:34;26.50;99.90
35395;DHT22;21500;45.308;9.488;2023-05-27T11:49:02;26.70;99.90
35395;DHT22;21500;45.308;9.488;2023-05-27T11:51:28;26.40;99.90
35395;DHT22;21500;45.308;9.488;2023-05-27T11:53:55;26.40;99.90
35395;DHT22;21500;45.308;9.488;2023-05-27T11:56:21;26.30;99.90
35395;DHT22;21500;45.308;9.488;2023-05-27T11:58:47;26.20;99.90
35395;DHT22;21500;45.308;9.488;2023-05-27T12:01:12;26.10;99.90
35395;DHT22;21500;45.308;9.488;2023-05-27T12:03:38;26.10;99.90
35395;DHT22;21500;45.308;9.488;2023-05-27T12:06:04;26.20;99.90
35395;DHT22;21500;45.308;9.488;2023-05-27T12:08:29;26.60;99.90
35395;DHT22;21500;45.308;9.488;2023-05-27T12:10:55;26.60;99.90
35395;DHT22;21500;45.308;9.488;2023-05-27T12:13:21;26.70;99.90
35395;DHT22;21500;45.308;9.488;2023-05-27T12:15:47;26.70;99.90
35395;DHT22;21500;45.308;9.488;2023-05-27T12:18:13;26.40;99.90
35395;DHT22;21500;45.308;9.488;2023-05-27T12:20:39;26.50;99.90
35395;DHT22;21500;45.308;9.488;2023-05-27T12:23:05;26.60;99.90
35395;DHT22;21500;45.308;9.488;2023-05-27T12:25:30;26.90;99.90
35395;DHT22;21500;45.308;9.488;2023-05-27T12:27:56;26.90;99.90
35395;DHT22;21500;45.308;9.488;2023-05-27T12:30:22;26.80;99.90
35395;DHT22;21500;45.308;9.488;2023-05-27T12:32:47;26.80;99.90
35395;DHT22;21500;45.308;9.488;2023-05-27T12:35:13;27.10;99.90
35395;DHT22;21500;45.308;9.488;2023-05-27T12:37:39;26.90;99.90
35395;DHT22;21500;45.308;9.488;2023-05-27T12:40:06;26.70;99.90
35395;DHT22;21500;45.308;9.488;2023-05-27T12:42:34;26.50;99.90
35395;DHT22;21500;45.308;9.488;2023-05-27T12:45:00;26.60;99.90
35395;DHT22;21500;45.308;9.488;2023-05-27T12:47:26;26.40;99.90
35395;DHT22;21500;45.308;9.488;2023-05-27T12:49:51;26.70;99.90
35395;DHT22;21500;45.308;9.488;2023-05-27T12:52:17;26.70;99.90
35395;DHT22;21500;45.308;9.488;2023-05-27T12:54:43;26.60;99.90
35395;DHT22;21500;45.308;9.488;2023-05-27T12:57:09;26.90;99.90
35395;DHT22;21500;45.308;9.488;2023-05-27T12:59:35;26.70;99.90
35395;DHT22;21500;45.308;9.488;2023-05-27T13:02:00;26.50;99.90
35395;DHT22;21500;45.308;9.488;2023-05-27T13:04:26;26.50;99.90
35395;DHT22;21500;45.308;9.488;2023-05-27T13:06:51;26.40;99.90
35395;DHT22;21500;45.308;9.488;2023-05-27T13:09:17;26.40;99.90
35395;DHT22;21500;45.308;9.488;2023-05-27T13:11:44;26.50;99.90
35395;DHT22;21500;45.308;9.488;2023-05-27T13:14:09;26.70;99.90
35395;DHT22;21500;45.308;9.488;2023-05-27T13:16:35;27.00;99.90
35395;DHT22;21500;45.308;9.488;2023-05-27T13:19:01;26.90;99.90
35395;DHT22;21500;45.308;9.488;2023-05-27T13:21:27;26.80;99.90
35395;DHT22;21500;45.308;9.488;2023-05-27T13:23:53;26.80;99.90
35395;DHT22;21500;45.308;9.488;2023-05-27T13:26:19;26.80;99.90
35395;DHT22;21500;45.308;9.488;2023-05-27T13:28:46;26.80;99.90
35395;DHT22;21500;45.308;9.488;2023-05-27T13:31:12;26.50;99.90
35395;DHT22;21500;45.308;9.488;2023-05-27T13:33:37;26.40;99.90
35395;DHT22;21500;45.308;9.488;2023-05-27T13:36:03;26.40;99.90
35395;DHT22;21500;45.308;9.488;2023-05-27T13:38:29;26.80;99.90
35395;DHT22;21500;45.308;9.488;2023-05-27T13:40:55;26.90;99.90
35395;DHT22;21500;45.308;9.488;2023-05-27T13:43:20;26.90;99.90
35395;DHT22;21500;45.308;9.488;2023-05-27T13:45:46;26.90;99.90
35395;DHT22;21500;45.308;9.488;2023-05-27T13:48:12;27.40;99.90
35395;DHT22;21500;45.308;9.488;2023-05-27T13:50:37;27.80;99.90
35395;DHT22;21500;45.308;9.488;2023-05-27T13:53:03;27.30;99.90
35395;DHT22;21500;45.308;9.488;2023-05-27T13:55:29;27.10;99.90
35395;DHT22;21500;45.308;9.488;2023-05-27T13:57:55;26.80;99.90
35395;DHT22;21500;45.308;9.488;2023-05-27T14:00:21;26.80;99.90
35395;DHT22;21500;45.308;9.488;2023-05-27T14:02:47;26.70;99.90
35395;DHT22;21500;45.308;9.488;2023-05-27T14:05:13;26.80;99.90
35395;DHT22;21500;45.308;9.488;2023-05-27T14:07:40;27.00;99.90
35395;DHT22;21500;45.308;9.488;2023-05-27T14:10:06;26.90;99.90
35395;DHT22;21500;45.308;9.488;2023-05-27T14:12:32;26.80;99.90
35395;DHT22;21500;45.308;9.488;2023-05-27T14:14:58;26.70;99.90
35395;DHT22;21500;45.308;9.488;2023-05-27T14:17:24;26.60;99.90
35395;DHT22;21500;45.308;9.488;2023-05-27T14:19:50;26.80;99.90
35395;DHT22;21500;45.308;9.488;2023-05-27T14:22:16;27.10;99.90
35395;DHT22;21500;45.308;9.488;2023-05-27T14:24:41;27.20;99.90
35395;DHT22;21500;45.308;9.488;2023-05-27T14:27:07;27.10;99.90
35395;DHT22;21500;45.308;9.488;2023-05-27T14:29:33;27.10;99.90
35395;DHT22;21500;45.308;9.488;2023-05-27T14:31:59;27.10;99.90
35395;DHT22;21500;45.308;9.488;2023-05-27T14:34:24;27.10;99.90
35395;DHT22;21500;45.308;9.488;2023-05-27T14:36:50;27.30;99.90
35395;DHT22;21500;45.308;9.488;2023-05-27T14:39:16;27.20;99.90
35395;DHT22;21500;45.308;9.488;2023-05-27T14:41:42;27.10;99.90
35395;DHT22;21500;45.308;9.488;2023-05-27T14:44:09;27.40;99.90
35395;DHT22;21500;45.308;9.488;2023-05-27T14:47:04;27.30;99.60
35395;DHT22;21500;45.308;9.488;2023-05-27T14:49:30;27.00;99.90
35395;DHT22;21500;45.308;9.488;2023-05-27T14:51:57;27.30;99.90
35395;DHT22;21500;45.308;9.488;2023-05-27T14:54:23;27.40;99.50
35395;DHT22;21500;45.308;9.488;2023-05-27T14:56:51;27.30;99.60
35395;DHT22;21500;45.308;9.488;2023-05-27T14:59:18;27.10;99.00
35395;DHT22;21500;45.308;9.488;2023-05-27T15:01:47;27.10;99.10
35395;DHT22;21500;45.308;9.488;2023-05-27T15:04:13;27.20;99.50
35395;DHT22;21500;45.308;9.488;2023-05-27T15:06:38;27.00;99.20
35395;DHT22;21500;45.308;9.488;2023-05-27T15:09:04;27.20;99.20
35395;DHT22;21500;45.308;9.488;2023-05-27T15:11:30;27.20;99.30
35395;DHT22;21500;45.308;9.488;2023-05-27T15:13:56;27.50;99.60
35395;DHT22;21500;45.308;9.488;2023-05-27T15:16:22;27.10;99.10
35395;DHT22;21500;45.308;9.488;2023-05-27T15:18:47;26.90;99.60
35395;DHT22;21500;45.308;9.488;2023-05-27T15:21:13;27.00;99.50
35395;DHT22;21500;45.308;9.488;2023-05-27T15:23:39;27.00;99.40
35395;DHT22;21500;45.308;9.488;2023-05-27T15:26:05;27.20;99.60
35395;DHT22;21500;45.308;9.488;2023-05-27T15:28:31;27.20;99.40
35395;DHT22;21500;45.308;9.488;2023-05-27T15:30:57;27.30;99.50
35395;DHT22;21500;45.308;9.488;2023-05-27T15:33:22;27.00;99.00
35395;DHT22;21500;45.308;9.488;2023-05-27T15:35:48;27.10;99.00